sensor_id;sensor_type;location;lat;lon;timestamp;P1;durP1;ratioP1;P2;durP2;ratioP2
29848;SDS011;16728;50.832;5.590;2023-07-20T00:01:44;5.40;;;3.80;;
29848;SDS011;16728;50.832;5.590;2023-07-20T00:04:46;6.82;;;3.83;;
29848;SDS011;16728;50.832;5.590;2023-07-20T00:07:48;4.80;;;3.67;;
29848;SDS011;16728;50.832;5.590;2023-07-20T00:10:53;4.82;;;3.60;;
29848;SDS011;16728;50.832;5.590;2023-07-20T00:13:55;4.93;;;3.45;;
29848;SDS011;16728;50.832;5.590;2023-07-20T00:16:57;7.60;;;3.60;;
29848;SDS011;16728;50.832;5.590;2023-07-20T00:19:59;6.55;;;3.80;;
29848;SDS011;16728;50.832;5.590;2023-07-20T00:23:01;7.15;;;3.80;;
29848;SDS011;16728;50.832;5.590;2023-07-20T00:26:03;7.00;;;3.58;;
29848;SDS011;16728;50.832;5.590;2023-07-20T00:29:05;5.97;;;3.33;;
29848;SDS011;16728;50.832;5.590;2023-07-20T00:32:07;6.30;;;3.28;;
29848;SDS011;16728;50.832;5.590;2023-07-20T00:35:09;5.50;;;3.38;;
29848;SDS011;16728;50.832;5.590;2023-07-20T00:38:12;3.88;;;3.17;;
29848;SDS011;16728;50.832;5.590;2023-07-20T00:41:14;5.93;;;3.13;;
29848;SDS011;16728;50.832;5.590;2023-07-20T00:44:16;10.40;;;3.13;;
29848;SDS011;16728;50.832;5.590;2023-07-20T00:47:18;5.63;;;2.95;;
29848;SDS011;16728;50.832;5.590;2023-07-20T00:50:20;6.53;;;3.30;;
29848;SDS011;16728;50.832;5.590;2023-07-20T00:53:22;5.38;;;2.97;;
29848;SDS011;16728;50.832;5.590;2023-07-20T00:56:24;6.95;;;3.05;;
29848;SDS011;16728;50.832;5.590;2023-07-20T00:59:27;6.70;;;3.05;;
29848;SDS011;16728;50.832;5.590;2023-07-20T01:02:29;7.50;;;2.95;;
29848;SDS011;16728;50.832;5.590;2023-07-20T01:09:19;5.47;;;3.50;;
29848;SDS011;16728;50.832;5.590;2023-07-20T01:12:41;6.63;;;2.65;;
29848;SDS011;16728;50.832;5.590;2023-07-20T01:15:49;6.13;;;3.05;;
29848;SDS011;16728;50.832;5.590;2023-07-20T01:18:52;7.00;;;2.80;;
29848;SDS011;16728;50.832;5.590;2023-07-20T01:21:59;7.00;;;2.90;;
29848;SDS011;16728;50.832;5.590;2023-07-20T01:29:17;6.72;;;2.72;;
29848;SDS011;16728;50.832;5.590;2023-07-20T01:32:23;5.95;;;2.80;;
29848;SDS011;16728;50.832;5.590;2023-07-20T01:35:27;7.03;;;2.80;;
29848;SDS011;16728;50.832;5.590;2023-07-20T01:38:31;7.75;;;2.85;;
29848;SDS011;16728;50.832;5.590;2023-07-20T01:41:33;6.97;;;2.85;;
29848;SDS011;16728;50.832;5.590;2023-07-20T01:44:36;5.50;;;2.58;;
29848;SDS011;16728;50.832;5.590;2023-07-20T01:47:39;7.00;;;2.70;;
29848;SDS011;16728;50.832;5.590;2023-07-20T01:50:41;4.50;;;2.58;;
29848;SDS011;16728;50.832;5.590;2023-07-20T01:53:43;6.13;;;2.92;;
29848;SDS011;16728;50.832;5.590;2023-07-20T01:56:45;5.43;;;2.53;;
29848;SDS011;16728;50.832;5.590;2023-07-20T01:59:47;8.02;;;2.97;;
29848;SDS011;16728;50.832;5.590;2023-07-20T02:02:49;7.45;;;2.95;;
29848;SDS011;16728;50.832;5.590;2023-07-20T02:05:51;5.68;;;2.63;;
29848;SDS011;16728;50.832;5.590;2023-07-20T02:08:53;8.88;;;3.10;;
29848;SDS011;16728;50.832;5.590;2023-07-20T02:11:55;8.23;;;2.88;;
29848;SDS011;16728;50.832;5.590;2023-07-20T02:14:57;6.18;;;2.42;;
29848;SDS011;16728;50.832;5.590;2023-07-20T02:17:59;5.18;;;2.80;;
29848;SDS011;16728;50.832;5.590;2023-07-20T02:21:01;5.75;;;2.72;;
29848;SDS011;16728;50.832;5.590;2023-07-20T02:24:03;5.68;;;2.60;;
29848;SDS011;16728;50.832;5.590;2023-07-20T02:27:05;5.53;;;2.60;;
29848;SDS011;16728;50.832;5.590;2023-07-20T02:30:08;7.37;;;3.10;;
29848;SDS011;16728;50.832;5.590;2023-07-20T02:33:10;5.53;;;2.60;;
29848;SDS011;16728;50.832;5.590;2023-07-20T02:36:12;8.13;;;3.08;;
29848;SDS011;16728;50.832;5.590;2023-07-20T02:39:14;12.23;;;3.25;;
29848;SDS011;16728;50.832;5.590;2023-07-20T02:42:16;5.00;;;2.58;;
29848;SDS011;16728;50.832;5.590;2023-07-20T02:45:18;8.25;;;2.92;;
29848;SDS011;16728;50.832;5.590;2023-07-20T02:48:20;8.63;;;3.22;;
29848;SDS011;16728;50.832;5.590;2023-07-20T02:51:22;6.72;;;3.60;;
29848;SDS011;16728;50.832;5.590;2023-07-20T02:54:23;7.25;;;3.42;;
29848;SDS011;16728;50.832;5.590;2023-07-20T02:57:25;8.02;;;3.50;;
29848;SDS011;16728;50.832;5.590;2023-07-20T03:00:28;7.27;;;3.33;;
29848;SDS011;16728;50.832;5.590;2023-07-20T03:03:30;6.90;;;2.97;;
29848;SDS011;16728;50.832;5.590;2023-07-20T03:06:32;8.15;;;3.40;;
29848;SDS011;16728;50.832;5.590;2023-07-20T03:09:37;8.80;;;3.40;;
29848;SDS011;16728;50.832;5.590;2023-07-20T03:12:39;6.68;;;3.72;;
29848;SDS011;16728;50.832;5.590;2023-07-20T03:15:41;8.75;;;3.50;;
29848;SDS011;16728;50.832;5.590;2023-07-20T03:18:43;8.05;;;3.25;;
29848;SDS011;16728;50.832;5.590;2023-07-20T03:21:45;11.63;;;3.60;;
29848;SDS011;16728;50.832;5.590;2023-07-20T03:24:47;10.27;;;3.72;;
29848;SDS011;16728;50.832;5.590;2023-07-20T03:27:49;5.07;;;3.20;;
29848;SDS011;16728;50.832;5.590;2023-07-20T03:30:57;8.55;;;3.58;;
29848;SDS011;16728;50.832;5.590;2023-07-20T03:33:59;9.85;;;3.85;;
29848;SDS011;16728;50.832;5.590;2023-07-20T03:37:01;7.93;;;3.40;;
29848;SDS011;16728;50.832;5.590;2023-07-20T03:40:06;8.80;;;3.40;;
29848;SDS011;16728;50.832;5.590;2023-07-20T03:43:08;12.05;;;3.45;;
29848;SDS011;16728;50.832;5.590;2023-07-20T03:46:10;10.45;;;3.55;;
29848;SDS011;16728;50.832;5.590;2023-07-20T03:49:13;9.75;;;4.05;;
29848;SDS011;16728;50.832;5.590;2023-07-20T03:52:14;11.68;;;3.95;;
29848;SDS011;16728;50.832;5.590;2023-07-20T03:55:16;9.27;;;4.10;;
29848;SDS011;16728;50.832;5.590;2023-07-20T03:58:18;8.80;;;4.10;;
29848;SDS011;16728;50.832;5.590;2023-07-20T04:01:21;9.73;;;3.80;;
29848;SDS011;16728;50.832;5.590;2023-07-20T04:04:23;10.68;;;4.10;;
29848;SDS011;16728;50.832;5.590;2023-07-20T04:07:25;12.30;;;4.25;;
29848;SDS011;16728;50.832;5.590;2023-07-20T04:10:27;13.07;;;4.25;;
29848;SDS011;16728;50.832;5.590;2023-07-20T04:13:29;9.60;;;3.92;;
29848;SDS011;16728;50.832;5.590;2023-07-20T04:16:34;9.05;;;4.00;;
29848;SDS011;16728;50.832;5.590;2023-07-20T04:19:36;8.90;;;4.40;;
29848;SDS011;16728;50.832;5.590;2023-07-20T04:22:38;10.32;;;4.18;;
29848;SDS011;16728;50.832;5.590;2023-07-20T04:25:40;11.52;;;4.38;;
29848;SDS011;16728;50.832;5.590;2023-07-20T04:28:42;7.07;;;3.92;;
29848;SDS011;16728;50.832;5.590;2023-07-20T04:31:44;12.25;;;4.25;;
29848;SDS011;16728;50.832;5.590;2023-07-20T04:34:46;14.45;;;4.60;;
29848;SDS011;16728;50.832;5.590;2023-07-20T04:37:48;16.33;;;5.35;;
29848;SDS011;16728;50.832;5.590;2023-07-20T04:40:50;11.25;;;5.00;;
29848;SDS011;16728;50.832;5.590;2023-07-20T04:43:52;11.80;;;4.70;;
29848;SDS011;16728;50.832;5.590;2023-07-20T04:46:54;14.07;;;5.32;;
29848;SDS011;16728;50.832;5.590;2023-07-20T04:49:56;11.30;;;4.53;;
29848;SDS011;16728;50.832;5.590;2023-07-20T04:52:58;10.20;;;5.30;;
29848;SDS011;16728;50.832;5.590;2023-07-20T04:56:00;12.48;;;5.32;;
29848;SDS011;16728;50.832;5.590;2023-07-20T04:59:01;14.68;;;6.47;;
29848;SDS011;16728;50.832;5.590;2023-07-20T05:02:04;10.27;;;6.07;;
29848;SDS011;16728;50.832;5.590;2023-07-20T05:05:06;12.63;;;6.50;;
29848;SDS011;16728;50.832;5.590;2023-07-20T05:08:08;10.98;;;6.65;;
29848;SDS011;16728;50.832;5.590;2023-07-20T05:11:11;15.55;;;7.15;;
29848;SDS011;16728;50.832;5.590;2023-07-20T05:14:14;13.68;;;7.70;;
29848;SDS011;16728;50.832;5.590;2023-07-20T05:17:15;16.13;;;7.88;;
29848;SDS011;16728;50.832;5.590;2023-07-20T05:20:17;14.10;;;8.40;;
29848;SDS011;16728;50.832;5.590;2023-07-20T05:23:20;14.57;;;8.63;;
29848;SDS011;16728;50.832;5.590;2023-07-20T05:26:22;16.85;;;9.73;;
29848;SDS011;16728;50.832;5.590;2023-07-20T05:29:25;17.40;;;9.40;;
29848;SDS011;16728;50.832;5.590;2023-07-20T05:32:27;16.48;;;9.77;;
29848;SDS011;16728;50.832;5.590;2023-07-20T05:35:29;15.50;;;10.45;;
29848;SDS011;16728;50.832;5.590;2023-07-20T05:38:31;23.73;;;11.25;;
29848;SDS011;16728;50.832;5.590;2023-07-20T05:41:33;17.88;;;12.25;;
29848;SDS011;16728;50.832;5.590;2023-07-20T05:44:35;14.88;;;12.00;;
29848;SDS011;16728;50.832;5.590;2023-07-20T05:47:38;24.05;;;13.90;;
29848;SDS011;16728;50.832;5.590;2023-07-20T05:50:43;17.92;;;13.35;;
29848;SDS011;16728;50.832;5.590;2023-07-20T05:53:45;18.58;;;13.43;;
29848;SDS011;16728;50.832;5.590;2023-07-20T05:56:47;19.83;;;14.05;;
29848;SDS011;16728;50.832;5.590;2023-07-20T05:59:49;21.38;;;14.50;;
29848;SDS011;16728;50.832;5.590;2023-07-20T06:02:54;23.00;;;14.23;;
29848;SDS011;16728;50.832;5.590;2023-07-20T06:06:00;19.98;;;14.98;;
29848;SDS011;16728;50.832;5.590;2023-07-20T06:09:03;21.40;;;15.02;;
29848;SDS011;16728;50.832;5.590;2023-07-20T06:12:06;19.08;;;13.95;;
29848;SDS011;16728;50.832;5.590;2023-07-20T06:15:26;17.33;;;14.30;;
29848;SDS011;16728;50.832;5.590;2023-07-20T06:18:30;19.50;;;15.05;;
29848;SDS011;16728;50.832;5.590;2023-07-20T06:21:32;19.65;;;13.98;;
29848;SDS011;16728;50.832;5.590;2023-07-20T06:24:34;16.15;;;13.95;;
29848;SDS011;16728;50.832;5.590;2023-07-20T06:27:36;19.05;;;14.05;;
29848;SDS011;16728;50.832;5.590;2023-07-20T06:30:38;17.05;;;13.93;;
29848;SDS011;16728;50.832;5.590;2023-07-20T06:33:40;18.23;;;13.27;;
29848;SDS011;16728;50.832;5.590;2023-07-20T06:36:42;17.38;;;13.02;;
29848;SDS011;16728;50.832;5.590;2023-07-20T06:39:44;14.68;;;12.55;;
29848;SDS011;16728;50.832;5.590;2023-07-20T06:42:49;14.93;;;11.95;;
29848;SDS011;16728;50.832;5.590;2023-07-20T06:45:54;19.52;;;11.65;;
29848;SDS011;16728;50.832;5.590;2023-07-20T06:48:56;16.57;;;10.93;;
29848;SDS011;16728;50.832;5.590;2023-07-20T06:52:01;14.23;;;10.70;;
29848;SDS011;16728;50.832;5.590;2023-07-20T06:55:03;14.10;;;9.75;;
29848;SDS011;16728;50.832;5.590;2023-07-20T06:58:06;16.50;;;11.40;;
29848;SDS011;16728;50.832;5.590;2023-07-20T07:01:08;15.23;;;11.35;;
29848;SDS011;16728;50.832;5.590;2023-07-20T07:04:10;13.27;;;10.35;;
29848;SDS011;16728;50.832;5.590;2023-07-20T07:07:15;14.60;;;11.45;;
29848;SDS011;16728;50.832;5.590;2023-07-20T07:10:27;12.05;;;9.10;;
29848;SDS011;16728;50.832;5.590;2023-07-20T07:13:29;11.10;;;8.65;;
29848;SDS011;16728;50.832;5.590;2023-07-20T07:16:31;10.50;;;7.90;;
29848;SDS011;16728;50.832;5.590;2023-07-20T07:19:39;10.20;;;8.13;;
29848;SDS011;16728;50.832;5.590;2023-07-20T07:22:42;8.55;;;7.60;;
29848;SDS011;16728;50.832;5.590;2023-07-20T07:25:46;9.13;;;7.28;;
29848;SDS011;16728;50.832;5.590;2023-07-20T07:28:49;8.95;;;7.40;;
29848;SDS011;16728;50.832;5.590;2023-07-20T07:31:51;12.50;;;7.30;;
29848;SDS011;16728;50.832;5.590;2023-07-20T07:34:53;9.90;;;7.10;;
29848;SDS011;16728;50.832;5.590;2023-07-20T07:37:55;9.23;;;6.15;;
29848;SDS011;16728;50.832;5.590;2023-07-20T07:41:14;6.03;;;5.10;;
29848;SDS011;16728;50.832;5.590;2023-07-20T07:44:16;8.45;;;6.45;;
29848;SDS011;16728;50.832;5.590;2023-07-20T07:47:17;10.88;;;6.53;;
29848;SDS011;16728;50.832;5.590;2023-07-20T07:50:19;8.43;;;6.43;;
29848;SDS011;16728;50.832;5.590;2023-07-20T07:53:21;10.55;;;6.60;;
29848;SDS011;16728;50.832;5.590;2023-07-20T07:56:23;6.68;;;5.70;;
29848;SDS011;16728;50.832;5.590;2023-07-20T07:59:26;10.87;;;7.00;;
29848;SDS011;16728;50.832;5.590;2023-07-20T08:02:28;10.95;;;7.30;;
29848;SDS011;16728;50.832;5.590;2023-07-20T08:05:30;6.32;;;5.50;;
29848;SDS011;16728;50.832;5.590;2023-07-20T08:08:32;6.53;;;4.63;;
29848;SDS011;16728;50.832;5.590;2023-07-20T08:11:35;5.03;;;3.83;;
29848;SDS011;16728;50.832;5.590;2023-07-20T08:14:36;3.95;;;2.88;;
29848;SDS011;16728;50.832;5.590;2023-07-20T08:17:38;7.15;;;4.70;;
29848;SDS011;16728;50.832;5.590;2023-07-20T08:20:43;7.93;;;4.67;;
29848;SDS011;16728;50.832;5.590;2023-07-20T08:23:45;4.45;;;3.88;;
29848;SDS011;16728;50.832;5.590;2023-07-20T08:26:48;4.47;;;3.63;;
29848;SDS011;16728;50.832;5.590;2023-07-20T08:29:50;5.90;;;3.72;;
29848;SDS011;16728;50.832;5.590;2023-07-20T08:32:52;5.18;;;4.35;;
29848;SDS011;16728;50.832;5.590;2023-07-20T08:35:54;4.72;;;4.25;;
29848;SDS011;16728;50.832;5.590;2023-07-20T08:38:58;6.68;;;5.03;;
29848;SDS011;16728;50.832;5.590;2023-07-20T08:42:01;6.53;;;4.55;;
29848;SDS011;16728;50.832;5.590;2023-07-20T08:45:06;5.15;;;3.90;;
29848;SDS011;16728;50.832;5.590;2023-07-20T08:48:10;5.18;;;4.47;;
29848;SDS011;16728;50.832;5.590;2023-07-20T08:51:13;5.88;;;3.85;;
29848;SDS011;16728;50.832;5.590;2023-07-20T08:57:18;3.90;;;3.00;;
29848;SDS011;16728;50.832;5.590;2023-07-20T09:00:23;4.65;;;3.10;;
29848;SDS011;16728;50.832;5.590;2023-07-20T09:03:25;2.80;;;2.60;;
29848;SDS011;16728;50.832;5.590;2023-07-20T09:06:28;3.40;;;2.55;;
29848;SDS011;16728;50.832;5.590;2023-07-20T09:09:30;3.50;;;3.20;;
29848;SDS011;16728;50.832;5.590;2023-07-20T09:12:35;5.70;;;3.35;;
29848;SDS011;16728;50.832;5.590;2023-07-20T09:15:39;4.93;;;3.50;;
29848;SDS011;16728;50.832;5.590;2023-07-20T09:18:48;3.40;;;3.10;;
29848;SDS011;16728;50.832;5.590;2023-07-20T09:21:50;3.92;;;2.90;;
29848;SDS011;16728;50.832;5.590;2023-07-20T09:24:53;6.50;;;3.30;;
29848;SDS011;16728;50.832;5.590;2023-07-20T09:27:55;3.90;;;2.33;;
29848;SDS011;16728;50.832;5.590;2023-07-20T09:31:00;3.85;;;2.25;;
29848;SDS011;16728;50.832;5.590;2023-07-20T09:34:18;3.97;;;2.53;;
29848;SDS011;16728;50.832;5.590;2023-07-20T09:37:23;3.50;;;1.70;;
29848;SDS011;16728;50.832;5.590;2023-07-20T09:40:26;2.53;;;2.05;;
29848;SDS011;16728;50.832;5.590;2023-07-20T09:43:48;3.40;;;1.70;;
29848;SDS011;16728;50.832;5.590;2023-07-20T09:46:51;3.10;;;2.63;;
29848;SDS011;16728;50.832;5.590;2023-07-20T09:49:58;4.68;;;2.72;;
29848;SDS011;16728;50.832;5.590;2023-07-20T09:53:04;5.20;;;2.63;;
29848;SDS011;16728;50.832;5.590;2023-07-20T09:56:10;3.90;;;2.35;;
29848;SDS011;16728;50.832;5.590;2023-07-20T09:59:16;2.70;;;2.40;;
29848;SDS011;16728;50.832;5.590;2023-07-20T10:02:23;2.83;;;2.15;;
29848;SDS011;16728;50.832;5.590;2023-07-20T10:05:32;3.70;;;2.17;;
29848;SDS011;16728;50.832;5.590;2023-07-20T10:08:38;7.07;;;2.08;;
29848;SDS011;16728;50.832;5.590;2023-07-20T10:11:46;3.50;;;2.47;;
29848;SDS011;16728;50.832;5.590;2023-07-20T10:15:18;3.22;;;2.55;;
29848;SDS011;16728;50.832;5.590;2023-07-20T10:18:39;2.53;;;2.05;;
29848;SDS011;16728;50.832;5.590;2023-07-20T10:21:48;3.97;;;3.22;;
29848;SDS011;16728;50.832;5.590;2023-07-20T10:24:59;2.78;;;2.53;;
29848;SDS011;16728;50.832;5.590;2023-07-20T10:28:02;2.53;;;1.98;;
29848;SDS011;16728;50.832;5.590;2023-07-20T10:31:09;5.88;;;2.58;;
29848;SDS011;16728;50.832;5.590;2023-07-20T10:34:13;3.10;;;2.30;;
29848;SDS011;16728;50.832;5.590;2023-07-20T10:37:42;3.58;;;2.00;;
29848;SDS011;16728;50.832;5.590;2023-07-20T10:40:53;2.45;;;2.25;;
29848;SDS011;16728;50.832;5.590;2023-07-20T10:44:08;2.88;;;1.65;;
29848;SDS011;16728;50.832;5.590;2023-07-20T10:47:13;4.50;;;1.92;;
29848;SDS011;16728;50.832;5.590;2023-07-20T10:50:15;4.32;;;2.10;;
29848;SDS011;16728;50.832;5.590;2023-07-20T10:53:17;3.35;;;1.80;;
29848;SDS011;16728;50.832;5.590;2023-07-20T11:02:25;3.28;;;1.48;;
29848;SDS011;16728;50.832;5.590;2023-07-20T11:05:37;2.38;;;1.23;;
29848;SDS011;16728;50.832;5.590;2023-07-20T11:08:42;1.67;;;1.23;;
29848;SDS011;16728;50.832;5.590;2023-07-20T11:11:46;2.53;;;1.90;;
29848;SDS011;16728;50.832;5.590;2023-07-20T11:14:53;1.95;;;1.55;;
29848;SDS011;16728;50.832;5.590;2023-07-20T11:18:10;3.42;;;1.80;;
29848;SDS011;16728;50.832;5.590;2023-07-20T11:21:14;2.15;;;1.90;;
29848;SDS011;16728;50.832;5.590;2023-07-20T11:27:19;3.58;;;1.95;;
29848;SDS011;16728;50.832;5.590;2023-07-20T11:30:23;2.83;;;1.35;;
29848;SDS011;16728;50.832;5.590;2023-07-20T11:33:26;2.42;;;1.50;;
29848;SDS011;16728;50.832;5.590;2023-07-20T11:36:27;2.65;;;1.30;;
29848;SDS011;16728;50.832;5.590;2023-07-20T11:39:32;2.20;;;1.33;;
29848;SDS011;16728;50.832;5.590;2023-07-20T11:42:34;1.80;;;1.50;;
29848;SDS011;16728;50.832;5.590;2023-07-20T11:45:39;2.63;;;1.50;;
29848;SDS011;16728;50.832;5.590;2023-07-20T11:48:41;4.13;;;1.70;;
29848;SDS011;16728;50.832;5.590;2023-07-20T11:51:43;2.25;;;1.15;;
29848;SDS011;16728;50.832;5.590;2023-07-20T11:54:45;2.22;;;1.30;;
29848;SDS011;16728;50.832;5.590;2023-07-20T11:58:03;4.57;;;1.55;;
29848;SDS011;16728;50.832;5.590;2023-07-20T12:01:05;7.68;;;1.63;;
29848;SDS011;16728;50.832;5.590;2023-07-20T12:04:07;2.00;;;1.20;;
29848;SDS011;16728;50.832;5.590;2023-07-20T12:07:10;2.53;;;1.30;;
29848;SDS011;16728;50.832;5.590;2023-07-20T12:10:12;1.60;;;1.15;;
29848;SDS011;16728;50.832;5.590;2023-07-20T12:13:14;2.10;;;1.33;;
29848;SDS011;16728;50.832;5.590;2023-07-20T12:16:16;1.10;;;1.00;;
29848;SDS011;16728;50.832;5.590;2023-07-20T12:19:19;3.40;;;1.80;;
29848;SDS011;16728;50.832;5.590;2023-07-20T12:22:21;2.53;;;1.20;;
29848;SDS011;16728;50.832;5.590;2023-07-20T12:25:23;3.35;;;1.10;;
29848;SDS011;16728;50.832;5.590;2023-07-20T12:28:33;2.03;;;1.08;;
29848;SDS011;16728;50.832;5.590;2023-07-20T12:31:37;3.75;;;1.23;;
29848;SDS011;16728;50.832;5.590;2023-07-20T12:34:39;1.30;;;1.10;;
29848;SDS011;16728;50.832;5.590;2023-07-20T12:37:40;7.13;;;1.25;;
29848;SDS011;16728;50.832;5.590;2023-07-20T12:40:43;2.83;;;1.00;;
29848;SDS011;16728;50.832;5.590;2023-07-20T12:43:45;2.20;;;1.70;;
29848;SDS011;16728;50.832;5.590;2023-07-20T12:46:47;1.55;;;1.30;;
29848;SDS011;16728;50.832;5.590;2023-07-20T12:49:49;1.70;;;1.10;;
29848;SDS011;16728;50.832;5.590;2023-07-20T12:52:51;8.15;;;1.20;;
29848;SDS011;16728;50.832;5.590;2023-07-20T12:55:53;1.88;;;1.30;;
29848;SDS011;16728;50.832;5.590;2023-07-20T12:58:55;3.97;;;1.50;;
29848;SDS011;16728;50.832;5.590;2023-07-20T13:01:57;2.47;;;1.15;;
29848;SDS011;16728;50.832;5.590;2023-07-20T13:04:59;1.10;;;1.00;;
29848;SDS011;16728;50.832;5.590;2023-07-20T13:08:01;2.70;;;1.25;;
29848;SDS011;16728;50.832;5.590;2023-07-20T13:11:07;2.80;;;1.05;;
29848;SDS011;16728;50.832;5.590;2023-07-20T13:14:09;2.40;;;1.08;;
29848;SDS011;16728;50.832;5.590;2023-07-20T13:17:13;2.78;;;1.42;;
29848;SDS011;16728;50.832;5.590;2023-07-20T13:20:15;2.83;;;1.50;;
29848;SDS011;16728;50.832;5.590;2023-07-20T13:23:16;2.65;;;1.23;;
29848;SDS011;16728;50.832;5.590;2023-07-20T13:26:19;2.22;;;1.10;;
29848;SDS011;16728;50.832;5.590;2023-07-20T13:29:21;2.10;;;1.23;;
29848;SDS011;16728;50.832;5.590;2023-07-20T13:32:22;3.08;;;1.10;;
29848;SDS011;16728;50.832;5.590;2023-07-20T13:35:25;1.60;;;1.00;;
29848;SDS011;16728;50.832;5.590;2023-07-20T13:38:47;1.67;;;1.10;;
29848;SDS011;16728;50.832;5.590;2023-07-20T13:41:50;1.48;;;1.15;;
29848;SDS011;16728;50.832;5.590;2023-07-20T13:44:52;2.83;;;1.30;;
29848;SDS011;16728;50.832;5.590;2023-07-20T13:47:53;1.33;;;1.10;;
29848;SDS011;16728;50.832;5.590;2023-07-20T13:50:55;1.48;;;1.10;;
29848;SDS011;16728;50.832;5.590;2023-07-20T13:54:00;1.25;;;1.05;;
29848;SDS011;16728;50.832;5.590;2023-07-20T13:57:22;2.42;;;1.20;;
29848;SDS011;16728;50.832;5.590;2023-07-20T14:00:24;3.05;;;1.40;;
29848;SDS011;16728;50.832;5.590;2023-07-20T14:03:28;1.45;;;1.20;;
29848;SDS011;16728;50.832;5.590;2023-07-20T14:06:31;1.37;;;1.20;;
29848;SDS011;16728;50.832;5.590;2023-07-20T14:09:34;2.92;;;1.30;;
29848;SDS011;16728;50.832;5.590;2023-07-20T14:12:36;1.98;;;1.10;;
29848;SDS011;16728;50.832;5.590;2023-07-20T14:15:38;2.00;;;1.50;;
29848;SDS011;16728;50.832;5.590;2023-07-20T14:18:40;1.38;;;1.25;;
29848;SDS011;16728;50.832;5.590;2023-07-20T14:21:42;3.88;;;0.90;;
29848;SDS011;16728;50.832;5.590;2023-07-20T14:24:45;1.47;;;0.90;;
29848;SDS011;16728;50.832;5.590;2023-07-20T14:27:47;1.10;;;1.00;;
29848;SDS011;16728;50.832;5.590;2023-07-20T14:30:49;3.15;;;1.10;;
29848;SDS011;16728;50.832;5.590;2023-07-20T14:33:51;1.45;;;1.05;;
29848;SDS011;16728;50.832;5.590;2023-07-20T14:36:54;1.95;;;0.93;;
29848;SDS011;16728;50.832;5.590;2023-07-20T14:39:56;1.63;;;1.20;;
29848;SDS011;16728;50.832;5.590;2023-07-20T14:42:58;1.85;;;1.10;;
29848;SDS011;16728;50.832;5.590;2023-07-20T14:46:02;1.63;;;1.10;;
29848;SDS011;16728;50.832;5.590;2023-07-20T14:49:03;1.35;;;1.23;;
29848;SDS011;16728;50.832;5.590;2023-07-20T14:52:06;1.95;;;1.10;;
29848;SDS011;16728;50.832;5.590;2023-07-20T14:55:16;1.30;;;1.20;;
29848;SDS011;16728;50.832;5.590;2023-07-20T14:58:18;1.07;;;0.93;;
29848;SDS011;16728;50.832;5.590;2023-07-20T15:01:21;1.75;;;1.02;;
29848;SDS011;16728;50.832;5.590;2023-07-20T15:07:27;2.88;;;1.25;;
29848;SDS011;16728;50.832;5.590;2023-07-20T15:10:29;1.90;;;1.13;;
29848;SDS011;16728;50.832;5.590;2023-07-20T15:13:31;1.25;;;1.02;;
29848;SDS011;16728;50.832;5.590;2023-07-20T15:16:33;1.45;;;1.13;;
29848;SDS011;16728;50.832;5.590;2023-07-20T15:19:37;2.00;;;1.20;;
29848;SDS011;16728;50.832;5.590;2023-07-20T15:22:38;1.52;;;1.10;;
29848;SDS011;16728;50.832;5.590;2023-07-20T15:25:41;1.90;;;0.90;;
29848;SDS011;16728;50.832;5.590;2023-07-20T15:28:43;3.53;;;1.27;;
29848;SDS011;16728;50.832;5.590;2023-07-20T15:31:44;2.13;;;1.40;;
29848;SDS011;16728;50.832;5.590;2023-07-20T15:34:49;1.33;;;1.00;;
29848;SDS011;16728;50.832;5.590;2023-07-20T15:37:51;2.42;;;1.27;;
29848;SDS011;16728;50.832;5.590;2023-07-20T15:40:53;1.05;;;0.95;;
29848;SDS011;16728;50.832;5.590;2023-07-20T15:43:56;1.73;;;1.17;;
29848;SDS011;16728;50.832;5.590;2023-07-20T15:46:58;3.28;;;1.10;;
29848;SDS011;16728;50.832;5.590;2023-07-20T15:50:01;2.30;;;1.10;;
29848;SDS011;16728;50.832;5.590;2023-07-20T15:53:04;1.15;;;0.93;;
29848;SDS011;16728;50.832;5.590;2023-07-20T15:56:06;3.38;;;1.30;;
29848;SDS011;16728;50.832;5.590;2023-07-20T15:59:10;2.10;;;1.20;;
29848;SDS011;16728;50.832;5.590;2023-07-20T16:02:13;5.97;;;1.45;;
29848;SDS011;16728;50.832;5.590;2023-07-20T16:05:16;6.13;;;1.30;;
29848;SDS011;16728;50.832;5.590;2023-07-20T16:08:18;2.97;;;1.13;;
29848;SDS011;16728;50.832;5.590;2023-07-20T16:11:20;1.08;;;0.98;;
29848;SDS011;16728;50.832;5.590;2023-07-20T16:14:26;2.22;;;1.17;;
29848;SDS011;16728;50.832;5.590;2023-07-20T16:17:28;1.55;;;0.85;;
29848;SDS011;16728;50.832;5.590;2023-07-20T16:20:30;2.80;;;1.10;;
29848;SDS011;16728;50.832;5.590;2023-07-20T16:23:32;2.40;;;0.90;;
29848;SDS011;16728;50.832;5.590;2023-07-20T16:26:34;1.20;;;1.02;;
29848;SDS011;16728;50.832;5.590;2023-07-20T16:29:36;1.38;;;1.00;;
29848;SDS011;16728;50.832;5.590;2023-07-20T16:32:42;2.15;;;1.00;;
29848;SDS011;16728;50.832;5.590;2023-07-20T16:35:44;2.75;;;1.15;;
29848;SDS011;16728;50.832;5.590;2023-07-20T16:38:49;0.90;;;0.82;;
29848;SDS011;16728;50.832;5.590;2023-07-20T16:42:11;1.42;;;0.98;;
29848;SDS011;16728;50.832;5.590;2023-07-20T16:45:14;1.27;;;0.80;;
29848;SDS011;16728;50.832;5.590;2023-07-20T16:48:16;2.33;;;0.80;;
29848;SDS011;16728;50.832;5.590;2023-07-20T16:51:19;1.35;;;0.90;;
29848;SDS011;16728;50.832;5.590;2023-07-20T16:54:22;2.20;;;0.90;;
29848;SDS011;16728;50.832;5.590;2023-07-20T16:57:24;3.80;;;1.08;;
29848;SDS011;16728;50.832;5.590;2023-07-20T17:00:26;2.47;;;1.10;;
29848;SDS011;16728;50.832;5.590;2023-07-20T17:03:28;2.75;;;0.90;;
29848;SDS011;16728;50.832;5.590;2023-07-20T17:06:30;1.35;;;1.20;;
29848;SDS011;16728;50.832;5.590;2023-07-20T17:09:32;4.85;;;1.10;;
29848;SDS011;16728;50.832;5.590;2023-07-20T17:12:36;1.58;;;1.13;;
29848;SDS011;16728;50.832;5.590;2023-07-20T17:15:40;1.77;;;1.38;;
29848;SDS011;16728;50.832;5.590;2023-07-20T17:18:42;7.13;;;1.45;;
29848;SDS011;16728;50.832;5.590;2023-07-20T17:21:44;3.90;;;1.23;;
29848;SDS011;16728;50.832;5.590;2023-07-20T17:24:46;1.67;;;1.38;;
29848;SDS011;16728;50.832;5.590;2023-07-20T17:27:51;1.35;;;1.20;;
29848;SDS011;16728;50.832;5.590;2023-07-20T17:30:56;1.42;;;1.33;;
29848;SDS011;16728;50.832;5.590;2023-07-20T17:34:01;1.77;;;1.40;;
29848;SDS011;16728;50.832;5.590;2023-07-20T17:37:04;2.33;;;1.38;;
29848;SDS011;16728;50.832;5.590;2023-07-20T17:40:09;1.88;;;1.70;;
29848;SDS011;16728;50.832;5.590;2023-07-20T17:43:14;1.35;;;1.25;;
29848;SDS011;16728;50.832;5.590;2023-07-20T17:46:16;1.73;;;1.55;;
29848;SDS011;16728;50.832;5.590;2023-07-20T17:49:21;1.70;;;1.35;;
29848;SDS011;16728;50.832;5.590;2023-07-20T17:52:24;2.55;;;1.83;;
29848;SDS011;16728;50.832;5.590;2023-07-20T17:55:26;3.90;;;1.65;;
29848;SDS011;16728;50.832;5.590;2023-07-20T17:58:29;2.08;;;1.60;;
29848;SDS011;16728;50.832;5.590;2023-07-20T18:01:31;2.75;;;1.60;;
29848;SDS011;16728;50.832;5.590;2023-07-20T18:04:34;4.43;;;1.67;;
29848;SDS011;16728;50.832;5.590;2023-07-20T18:07:36;3.22;;;1.70;;
29848;SDS011;16728;50.832;5.590;2023-07-20T18:10:40;1.88;;;1.60;;
29848;SDS011;16728;50.832;5.590;2023-07-20T18:13:42;3.28;;;1.67;;
29848;SDS011;16728;50.832;5.590;2023-07-20T18:16:44;2.80;;;1.48;;
29848;SDS011;16728;50.832;5.590;2023-07-20T18:19:46;5.63;;;1.50;;
29848;SDS011;16728;50.832;5.590;2023-07-20T18:22:49;4.15;;;2.28;;
29848;SDS011;16728;50.832;5.590;2023-07-20T18:25:51;5.30;;;1.92;;
29848;SDS011;16728;50.832;5.590;2023-07-20T18:28:53;4.20;;;2.90;;
29848;SDS011;16728;50.832;5.590;2023-07-20T18:31:55;6.10;;;2.80;;
29848;SDS011;16728;50.832;5.590;2023-07-20T18:35:00;3.20;;;2.90;;
29848;SDS011;16728;50.832;5.590;2023-07-20T18:38:04;3.63;;;3.33;;
29848;SDS011;16728;50.832;5.590;2023-07-20T18:41:06;4.50;;;4.10;;
29848;SDS011;16728;50.832;5.590;2023-07-20T18:44:08;6.13;;;4.13;;